createdAt,value
2022-09-06T00:01:33.856Z,20.60
2022-09-06T00:04:05.063Z,20.60
2022-09-06T00:06:36.854Z,20.60
2022-09-06T00:09:07.633Z,20.50
2022-09-06T00:11:38.446Z,20.40
2022-09-06T00:14:09.153Z,20.30
2022-09-06T00:16:40.894Z,20.20
2022-09-06T00:19:11.546Z,20.00
2022-09-06T00:21:42.184Z,19.90
2022-09-06T00:24:12.844Z,19.80
2022-09-06T00:26:43.466Z,19.70
2022-09-06T00:29:14.109Z,19.70
2022-09-06T00:31:45.896Z,19.70
2022-09-06T00:34:16.519Z,19.80
2022-09-06T00:36:47.281Z,19.90
2022-09-06T00:39:18.397Z,19.80
2022-09-06T00:41:49.088Z,19.90
2022-09-06T00:44:19.861Z,19.80
2022-09-06T00:46:53.204Z,19.90
2022-09-06T00:49:26.696Z,19.80
2022-09-06T00:52:00.914Z,19.80
2022-09-06T00:54:32.312Z,19.70
2022-09-06T00:57:04.144Z,19.60
2022-09-06T00:59:37.620Z,19.50
2022-09-06T01:02:09.754Z,19.40
2022-09-06T01:04:43.097Z,19.30
2022-09-06T01:07:17.200Z,19.30
2022-09-06T01:09:56.072Z,19.30
2022-09-06T01:12:34.737Z,19.40
2022-09-06T01:15:15.362Z,19.40
2022-09-06T01:17:53.007Z,19.40
2022-09-06T01:21:04.552Z,19.50
2022-09-06T01:23:51.095Z,19.60
2022-09-06T01:29:36.391Z,19.70
2022-09-06T01:32:11.746Z,20.00
2022-09-06T01:34:45.697Z,20.00
2022-09-06T01:37:20.349Z,20.00
2022-09-06T01:39:51.022Z,19.80
2022-09-06T01:42:24.609Z,19.70
2022-09-06T01:44:57.696Z,19.70
2022-09-06T01:47:38.604Z,19.80
2022-09-06T01:50:39.323Z,19.90
2022-09-06T01:53:16.649Z,20.00
2022-09-06T01:55:51.126Z,20.10
2022-09-06T01:58:34.560Z,20.10
2022-09-06T02:01:08.743Z,20.00
2022-09-06T02:03:43.368Z,20.00
2022-09-06T02:06:16.910Z,20.00
2022-09-06T02:08:50.638Z,19.90
2022-09-06T02:11:21.376Z,19.90
2022-09-06T02:13:54.923Z,19.90
2022-09-06T02:16:28.111Z,19.90
2022-09-06T02:19:02.383Z,19.90
2022-09-06T02:21:36.441Z,19.90
2022-09-06T02:24:09.492Z,19.90
2022-09-06T02:26:43.078Z,19.90
2022-09-06T02:29:13.710Z,19.90
2022-09-06T02:31:47.825Z,19.90
2022-09-06T02:34:20.960Z,19.90
2022-09-06T02:36:52.019Z,19.80
2022-09-06T02:39:22.769Z,19.90
2022-09-06T02:41:53.828Z,20.00
2022-09-06T02:44:24.819Z,20.10
2022-09-06T02:46:57.297Z,20.10
2022-09-06T02:49:27.776Z,20.10
2022-09-06T02:51:58.918Z,20.00
2022-09-06T02:54:29.553Z,20.10
2022-09-06T02:57:00.191Z,20.20
2022-09-06T02:59:30.863Z,20.20
2022-09-06T03:02:01.574Z,20.20
2022-09-06T03:04:33.154Z,20.30
2022-09-06T03:07:03.777Z,20.40
2022-09-06T03:09:35.309Z,20.50
2022-09-06T03:12:06.722Z,20.30
2022-09-06T03:14:37.472Z,20.20
2022-09-06T03:17:08.253Z,20.20
2022-09-06T03:19:38.885Z,20.20
2022-09-06T03:22:09.645Z,20.20
2022-09-06T03:24:40.889Z,20.30
2022-09-06T03:27:11.576Z,20.30
2022-09-06T03:29:42.251Z,20.20
2022-09-06T03:32:12.963Z,20.20
2022-09-06T03:34:43.744Z,20.10
2022-09-06T03:37:14.373Z,20.20
2022-09-06T03:39:45.013Z,20.30
2022-09-06T03:42:15.873Z,20.40
2022-09-06T03:44:46.510Z,20.30
2022-09-06T03:47:19.636Z,20.30
2022-09-06T03:49:49.633Z,20.30
2022-09-06T03:52:20.787Z,20.30
2022-09-06T03:54:51.574Z,20.30
2022-09-06T03:57:22.166Z,20.30
2022-09-06T03:59:52.859Z,20.30
2022-09-06T04:05:01.751Z,20.30
2022-09-06T04:07:32.353Z,20.20
2022-09-06T04:10:04.083Z,20.10
2022-09-06T04:12:35.050Z,20.00
2022-09-06T04:15:06.496Z,19.90
2022-09-06T04:17:37.223Z,19.80
2022-09-06T04:20:10.751Z,19.70
2022-09-06T04:22:41.394Z,19.70
2022-09-06T04:25:14.196Z,19.70
2022-09-06T04:27:44.836Z,19.70
2022-09-06T04:30:15.720Z,19.80
2022-09-06T04:32:46.393Z,19.70
2022-09-06T04:35:17.484Z,19.60
2022-09-06T04:37:48.097Z,19.50
2022-09-06T04:40:19.129Z,19.50
2022-09-06T04:42:49.748Z,19.60
2022-09-06T04:45:20.449Z,19.70
2022-09-06T04:47:51.834Z,19.80
2022-09-06T04:50:22.816Z,19.90
2022-09-06T04:52:53.460Z,19.90
2022-09-06T04:55:24.127Z,19.90
2022-09-06T04:57:54.757Z,20.00
2022-09-06T05:00:25.465Z,19.70
2022-09-06T05:02:56.278Z,19.50
2022-09-06T05:05:27.472Z,19.50
2022-09-06T05:07:58.600Z,19.60
2022-09-06T05:10:29.401Z,19.50
2022-09-06T05:13:00.043Z,19.40
2022-09-06T05:15:30.743Z,19.50
2022-09-06T05:18:06.894Z,19.60
2022-09-06T05:20:37.845Z,19.60
2022-09-06T05:23:09.135Z,19.60
2022-09-06T05:25:39.902Z,19.70
2022-09-06T05:28:10.612Z,19.80
2022-09-06T05:30:41.739Z,19.90
2022-09-06T05:33:13.377Z,19.80
2022-09-06T05:35:44.138Z,19.80
2022-09-06T05:38:14.766Z,19.90
2022-09-06T05:40:45.439Z,20.00
2022-09-06T05:43:16.213Z,20.10
2022-09-06T05:45:47.189Z,20.10
2022-09-06T05:48:19.320Z,20.20
2022-09-06T05:50:51.595Z,20.20
2022-09-06T05:53:22.195Z,20.20
2022-09-06T05:55:52.872Z,20.30
2022-09-06T05:58:23.563Z,20.30
2022-09-06T06:00:56.795Z,20.20
2022-09-06T06:03:27.525Z,20.20
2022-09-06T06:05:58.196Z,20.20
2022-09-06T06:08:29.077Z,20.30
2022-09-06T06:11:03.034Z,20.40
2022-09-06T06:13:36.754Z,20.40
2022-09-06T06:16:09.039Z,20.60
2022-09-06T06:18:40.146Z,20.70
2022-09-06T06:21:15.878Z,20.90
2022-09-06T06:23:48.393Z,21.00
2022-09-06T06:26:19.263Z,21.20
2022-09-06T06:28:49.948Z,21.30
2022-09-06T06:31:22.860Z,21.40
2022-09-06T06:33:53.675Z,21.50
2022-09-06T06:36:25.401Z,21.60
2022-09-06T06:38:57.086Z,21.60
2022-09-06T06:41:29.871Z,21.60
2022-09-06T06:44:02.098Z,21.60
2022-09-06T06:46:34.656Z,21.60
2022-09-06T06:49:06.043Z,21.40
2022-09-06T06:51:38.260Z,21.60
2022-09-06T06:54:09.286Z,21.70
2022-09-06T06:56:42.376Z,21.70
2022-09-06T06:59:13.364Z,21.70
2022-09-06T07:01:45.047Z,21.80
2022-09-06T07:04:16.496Z,21.90
2022-09-06T07:09:26.089Z,22.00
2022-09-06T07:11:57.151Z,22.20
2022-09-06T07:14:27.864Z,22.20
2022-09-06T07:16:59.646Z,22.30
2022-09-06T07:22:05.267Z,22.50
2022-09-06T07:24:35.180Z,22.70
2022-09-06T07:29:38.543Z,22.70
2022-09-06T07:34:40.054Z,22.90
2022-09-06T07:37:10.739Z,22.90
2022-09-06T07:39:41.734Z,23.20
2022-09-06T07:42:12.586Z,23.20
2022-09-06T07:44:43.321Z,23.10
2022-09-06T07:54:52.858Z,23.10
2022-09-06T07:57:23.656Z,23.40
2022-09-06T07:59:54.273Z,23.70
2022-09-06T08:02:25.018Z,23.60
2022-09-06T08:04:56.919Z,23.30
2022-09-06T08:07:43.314Z,23.60
2022-09-06T08:10:00.468Z,23.90
2022-09-06T08:12:31.086Z,24.10
2022-09-06T08:15:01.729Z,24.20
2022-09-06T08:17:34.926Z,24.20
2022-09-06T08:20:07.752Z,24.10
2022-09-06T08:22:38.397Z,23.80
2022-09-06T08:25:11.370Z,23.60
2022-09-06T08:27:42.104Z,23.80
2022-09-06T08:30:14.997Z,24.00
2022-09-06T08:35:23.372Z,24.00
2022-09-06T08:37:53.989Z,24.20
2022-09-06T08:40:26.476Z,24.40
2022-09-06T08:42:57.286Z,24.60
2022-09-06T08:45:28.880Z,24.50
2022-09-06T08:48:00.901Z,24.60
2022-09-06T08:50:32.063Z,24.80
2022-09-06T08:53:22.775Z,24.60
2022-09-06T08:55:43.274Z,24.70
2022-09-06T08:58:26.098Z,24.90
2022-09-06T09:01:00.739Z,24.90
2022-09-06T09:03:36.759Z,25.00
2022-09-06T09:06:10.500Z,24.70
2022-09-06T09:08:48.187Z,24.70
2022-09-06T09:11:21.573Z,25.20
2022-09-06T09:13:59.331Z,25.60
2022-09-06T09:16:30.303Z,25.80
2022-09-06T09:19:03.935Z,25.80
2022-09-06T09:21:36.971Z,25.80
2022-09-06T09:24:10.364Z,25.80
2022-09-06T09:26:45.796Z,26.00
2022-09-06T09:29:17.642Z,26.20
2022-09-06T09:31:53.628Z,26.10
2022-09-06T09:34:33.939Z,26.10
2022-09-06T09:39:50.990Z,26.10
2022-09-06T09:42:28.885Z,26.40
2022-09-06T09:45:01.243Z,26.50
2022-09-06T09:47:33.354Z,26.50
2022-09-06T09:50:05.575Z,26.80
2022-09-06T09:52:37.690Z,26.80
2022-09-06T09:55:11.116Z,26.60
2022-09-06T09:57:50.942Z,26.70
2022-09-06T10:00:39.517Z,26.90
2022-09-06T10:03:19.256Z,27.20
2022-09-06T10:06:02.708Z,26.90
2022-09-06T10:08:37.314Z,27.00
2022-09-06T10:11:08.294Z,27.20
2022-09-06T10:13:38.988Z,27.30
2022-09-06T10:16:10.134Z,27.10
2022-09-06T10:18:42.673Z,27.00
2022-09-06T10:21:16.383Z,27.20
2022-09-06T10:26:36.258Z,27.70
2022-09-06T10:29:09.922Z,27.60
2022-09-06T10:35:11.765Z,28.00
2022-09-06T10:37:49.368Z,27.80
2022-09-06T10:40:34.418Z,27.70
2022-09-06T10:43:09.108Z,27.80
2022-09-06T10:45:49.405Z,28.30
2022-09-06T10:48:23.480Z,28.40
2022-09-06T10:50:57.813Z,28.40
2022-09-06T10:53:47.395Z,28.30
2022-09-06T10:56:22.020Z,28.40
2022-09-06T11:01:34.820Z,28.10
2022-09-06T11:04:12.866Z,28.20
2022-09-06T11:06:45.965Z,28.40
2022-09-06T11:12:00.950Z,28.50
2022-09-06T11:14:32.254Z,28.40
2022-09-06T11:17:06.130Z,28.60
2022-09-06T11:19:40.537Z,28.80
2022-09-06T11:22:22.722Z,29.00
2022-09-06T11:25:08.309Z,28.60
2022-09-06T11:27:42.288Z,28.40
2022-09-06T11:30:17.856Z,29.00
2022-09-06T11:32:50.539Z,29.20
2022-09-06T11:35:31.456Z,29.20
2022-09-06T11:38:05.122Z,29.40
2022-09-06T11:40:41.711Z,29.40
2022-09-06T11:43:19.385Z,29.20
2022-09-06T11:48:58.563Z,29.50
2022-09-06T11:51:38.224Z,29.90
2022-09-06T11:54:25.519Z,29.80
2022-09-06T11:57:00.991Z,30.20
2022-09-06T11:59:45.308Z,30.40
2022-09-06T12:02:41.219Z,30.80
2022-09-06T12:05:32.236Z,31.00
2022-09-06T12:08:38.778Z,30.80
2022-09-06T12:11:30.620Z,30.50
2022-09-06T12:14:04.223Z,30.70
2022-09-06T12:17:33.091Z,31.00
2022-09-06T12:20:07.181Z,30.80
2022-09-06T12:23:08.968Z,31.00
2022-09-06T12:25:57.586Z,31.30
2022-09-06T12:28:33.356Z,31.30
2022-09-06T12:31:23.482Z,31.40
2022-09-06T12:33:55.627Z,31.60
2022-09-06T12:36:30.571Z,31.90
2022-09-06T12:39:02.893Z,32.10
2022-09-06T12:41:37.460Z,32.00
2022-09-06T12:44:09.193Z,31.90
2022-09-06T12:46:40.220Z,32.00
2022-09-06T12:49:13.141Z,32.00
2022-09-06T12:51:44.394Z,32.10
2022-09-06T12:54:23.060Z,31.90
2022-09-06T12:56:55.005Z,32.30
2022-09-06T12:59:27.380Z,33.00
2022-09-06T13:04:42.669Z,32.80
2022-09-06T13:07:16.613Z,32.80
2022-09-06T13:09:49.569Z,32.60
2022-09-06T13:12:26.493Z,32.30
2022-09-06T13:14:58.467Z,32.70
2022-09-06T13:17:31.703Z,32.60
2022-09-06T13:20:13.077Z,32.50
2022-09-06T13:22:47.763Z,32.70
2022-09-06T13:25:26.537Z,32.60
2022-09-06T13:27:58.525Z,32.70
2022-09-06T13:30:47.854Z,32.90
2022-09-06T13:33:26.386Z,33.30
2022-09-06T13:36:11.247Z,33.50
2022-09-06T13:38:46.519Z,33.50
2022-09-06T13:41:37.792Z,33.50
2022-09-06T13:44:10.900Z,33.80
2022-09-06T13:46:41.624Z,34.00
2022-09-06T13:49:12.340Z,33.50
2022-09-06T13:51:44.441Z,32.90
2022-09-06T13:54:16.486Z,33.20
2022-09-06T13:56:48.649Z,33.80
2022-09-06T13:59:19.910Z,33.40
2022-09-06T14:01:54.158Z,33.40
2022-09-06T14:04:25.621Z,33.60
2022-09-06T14:06:57.383Z,33.40
2022-09-06T14:09:28.287Z,33.00
2022-09-06T14:11:59.349Z,33.50
2022-09-06T14:14:30.182Z,33.60
2022-09-06T14:17:01.258Z,33.70
2022-09-06T14:19:31.932Z,34.20
2022-09-06T14:22:04.479Z,33.60
2022-09-06T14:24:35.201Z,33.40
2022-09-06T14:27:07.296Z,33.50
2022-09-06T14:29:38.086Z,33.90
2022-09-06T14:32:09.142Z,33.40
2022-09-06T14:34:58.492Z,34.20
2022-09-06T14:37:29.271Z,33.60
2022-09-06T14:40:00.292Z,33.80
2022-09-06T14:42:32.841Z,33.60
2022-09-06T14:45:03.582Z,33.50
2022-09-06T14:47:34.234Z,33.50
2022-09-06T14:50:05.210Z,32.80
2022-09-06T14:52:36.337Z,32.30
2022-09-06T14:55:08.639Z,32.00
2022-09-06T14:57:39.388Z,31.70
2022-09-06T15:00:13.438Z,31.40
2022-09-06T15:02:44.385Z,31.10
2022-09-06T15:05:15.199Z,30.80
2022-09-06T15:07:46.621Z,30.60
2022-09-06T15:10:19.641Z,30.50
2022-09-06T15:12:50.507Z,30.30
2022-09-06T15:15:21.300Z,30.30
2022-09-06T15:17:52.218Z,30.00
2022-09-06T15:20:22.894Z,29.80
2022-09-06T15:23:21.765Z,29.70
2022-09-06T15:25:26.663Z,29.40
2022-09-06T15:27:57.284Z,29.30
2022-09-06T15:30:28.131Z,29.30
2022-09-06T15:32:58.791Z,29.20
2022-09-06T15:35:29.917Z,29.10
2022-09-06T15:38:00.813Z,28.90
2022-09-06T15:40:31.540Z,28.60
2022-09-06T15:43:03.309Z,28.50
2022-09-06T15:45:38.125Z,28.40
2022-09-06T15:48:09.231Z,28.20
2022-09-06T15:50:51.181Z,27.80
2022-09-06T15:53:14.870Z,27.70
2022-09-06T15:55:58.346Z,27.60
2022-09-06T15:58:39.436Z,27.60
2022-09-06T16:01:12.874Z,27.40
2022-09-06T16:03:45.522Z,27.30
2022-09-06T16:06:27.252Z,27.20
2022-09-06T16:08:53.460Z,27.10
2022-09-06T16:11:24.780Z,27.00
2022-09-06T16:13:55.576Z,27.20
2022-09-06T16:16:28.700Z,27.00
2022-09-06T16:19:00.684Z,27.10
2022-09-06T16:21:33.445Z,26.90
2022-09-06T16:24:05.691Z,26.90
2022-09-06T16:26:38.417Z,26.90
2022-09-06T16:29:11.505Z,27.00
2022-09-06T16:31:42.330Z,26.80
2022-09-06T16:34:14.090Z,26.70
2022-09-06T16:36:45.142Z,26.60
2022-09-06T16:39:16.170Z,26.60
2022-09-06T16:41:48.023Z,26.50
2022-09-06T16:44:20.166Z,26.50
2022-09-06T16:46:54.057Z,26.50
2022-09-06T16:49:25.265Z,26.30
2022-09-06T16:51:56.502Z,26.20
2022-09-06T16:54:27.441Z,26.10
2022-09-06T16:56:58.267Z,26.10
2022-09-06T17:02:05.876Z,26.00
2022-09-06T17:07:13.777Z,26.00
2022-09-06T17:09:44.551Z,26.00
2022-09-06T17:12:19.707Z,25.90
2022-09-06T17:17:29.078Z,25.70
2022-09-06T17:19:59.980Z,25.60
2022-09-06T17:22:31.731Z,25.60
2022-09-06T17:25:03.417Z,25.60
2022-09-06T17:27:35.490Z,25.50
2022-09-06T17:30:11.030Z,25.40
2022-09-06T17:32:43.557Z,25.40
2022-09-06T17:35:15.296Z,25.40
2022-09-06T17:40:25.277Z,25.30
2022-09-06T17:42:56.216Z,25.30
2022-09-06T17:45:27.017Z,25.30
2022-09-06T17:47:57.699Z,25.30
2022-09-06T17:50:30.071Z,25.40
2022-09-06T17:53:01.891Z,25.50
2022-09-06T17:55:32.648Z,25.50
2022-09-06T17:58:03.613Z,25.30
2022-09-06T18:00:37.637Z,25.20
2022-09-06T18:03:08.901Z,25.10
2022-09-06T18:05:40.763Z,25.00
2022-09-06T18:08:12.128Z,24.90
2022-09-06T18:10:45.861Z,24.80
2022-09-06T18:13:17.170Z,24.60
2022-09-06T18:15:48.002Z,24.50
2022-09-06T18:18:19.974Z,24.30
2022-09-06T18:20:52.461Z,24.40
2022-09-06T18:23:23.300Z,24.30
2022-09-06T18:26:01.727Z,24.30
2022-09-06T18:28:34.206Z,24.40
2022-09-06T18:31:07.785Z,24.40
2022-09-06T18:33:39.373Z,24.50
2022-09-06T18:36:13.304Z,24.60
2022-09-06T18:38:45.317Z,24.60
2022-09-06T18:41:36.102Z,24.60
2022-09-06T18:44:09.040Z,24.60
2022-09-06T18:46:40.022Z,24.60
2022-09-06T18:49:11.442Z,24.30
2022-09-06T18:51:42.914Z,24.40
2022-09-06T18:54:14.069Z,24.50
2022-09-06T18:56:45.770Z,24.40
2022-09-06T18:59:17.166Z,24.40
2022-09-06T19:01:48.114Z,24.20
2022-09-06T19:04:19.128Z,24.00
2022-09-06T19:06:50.436Z,23.90
2022-09-06T19:09:21.673Z,23.80
2022-09-06T19:11:53.451Z,23.80
2022-09-06T19:14:24.436Z,23.70
2022-09-06T19:16:55.406Z,23.70
2022-09-06T19:19:26.601Z,23.60
2022-09-06T19:21:58.726Z,23.60
2022-09-06T19:24:30.447Z,23.60
2022-09-06T19:27:01.361Z,23.50
2022-09-06T19:29:32.365Z,23.50
2022-09-06T19:32:04.290Z,23.30
2022-09-06T19:34:35.529Z,23.20
2022-09-06T19:37:06.419Z,23.10
2022-09-06T19:39:37.565Z,23.10
2022-09-06T19:42:09.421Z,23.00
2022-09-06T19:44:40.153Z,23.00
2022-09-06T19:47:11.285Z,22.90
2022-09-06T19:49:42.679Z,22.80
2022-09-06T19:52:13.511Z,22.80
2022-09-06T19:54:45.639Z,22.80
2022-09-06T19:57:16.465Z,22.70
2022-09-06T19:59:47.561Z,22.70
2022-09-06T20:02:18.913Z,22.70
2022-09-06T20:04:50.125Z,22.60
2022-09-06T20:09:58.144Z,22.60
2022-09-06T20:12:29.887Z,22.60
2022-09-06T20:15:02.060Z,22.50
2022-09-06T20:17:34.370Z,22.50
2022-09-06T20:20:06.248Z,22.50
2022-09-06T20:22:39.698Z,22.40
2022-09-06T20:25:12.109Z,22.40
2022-09-06T20:27:44.641Z,22.30
2022-09-06T20:30:15.801Z,22.30
2022-09-06T20:32:46.448Z,22.30
2022-09-06T20:35:17.434Z,22.20
2022-09-06T20:37:48.082Z,22.10
2022-09-06T20:40:18.959Z,22.00
2022-09-06T20:42:49.654Z,21.90
2022-09-06T20:45:21.869Z,21.90
2022-09-06T20:47:53.738Z,21.90
2022-09-06T20:50:24.428Z,21.90
2022-09-06T20:52:55.179Z,21.70
2022-09-06T20:55:26.345Z,21.70
2022-09-06T20:57:57.002Z,21.60
2022-09-06T21:00:27.712Z,21.60
2022-09-06T21:02:58.329Z,21.60
2022-09-06T21:05:29.163Z,21.50
2022-09-06T21:07:59.757Z,21.40
2022-09-06T21:10:31.460Z,21.40
2022-09-06T21:13:02.525Z,21.30
2022-09-06T21:15:35.344Z,21.20
2022-09-06T21:18:06.227Z,21.10
2022-09-06T21:20:37.048Z,20.90
2022-09-06T21:23:08.019Z,21.00
2022-09-06T21:25:38.630Z,21.00
2022-09-06T21:28:09.249Z,21.00
2022-09-06T21:30:39.998Z,20.90
2022-09-06T21:33:10.615Z,20.80
2022-09-06T21:35:41.243Z,20.70
2022-09-06T21:38:11.863Z,20.70
2022-09-06T21:40:42.650Z,20.70
2022-09-06T21:43:14.488Z,20.80
2022-09-06T21:45:45.137Z,20.80
2022-09-06T21:48:18.061Z,20.80
2022-09-06T21:50:49.311Z,20.70
2022-09-06T21:53:21.180Z,20.50
2022-09-06T21:55:52.305Z,20.30
2022-09-06T21:58:23.803Z,20.20
2022-09-06T22:00:58.369Z,20.10
2022-09-06T22:03:30.418Z,20.10
2022-09-06T22:06:02.820Z,20.00
2022-09-06T22:08:33.547Z,20.00
2022-09-06T22:11:11.891Z,19.70
2022-09-06T22:13:43.060Z,19.70
2022-09-06T22:16:15.153Z,19.70
2022-09-06T22:18:45.955Z,19.70
2022-09-06T22:21:20.333Z,19.40
2022-09-06T22:23:55.970Z,19.30
2022-09-06T22:26:27.484Z,19.40
2022-09-06T22:29:00.461Z,19.40
2022-09-06T22:31:32.908Z,19.40
2022-09-06T22:34:04.307Z,19.30
2022-09-06T22:36:35.534Z,19.30
2022-09-06T22:39:06.418Z,19.30
2022-09-06T22:41:38.012Z,19.20
2022-09-06T22:44:08.743Z,19.10
2022-09-06T22:46:39.569Z,19.10
2022-09-06T22:49:10.417Z,18.90
2022-09-06T22:51:41.139Z,18.80
2022-09-06T22:54:12.047Z,18.70
2022-09-06T22:56:42.704Z,18.70
2022-09-06T22:59:13.336Z,18.60
2022-09-06T23:01:43.992Z,18.60
2022-09-06T23:04:14.714Z,18.60
2022-09-06T23:06:45.447Z,18.60
2022-09-06T23:09:16.163Z,18.70
2022-09-06T23:11:47.395Z,18.70
2022-09-06T23:14:18.431Z,18.80
2022-09-06T23:16:49.093Z,18.80
2022-09-06T23:19:19.748Z,18.80
2022-09-06T23:21:50.475Z,18.70
2022-09-06T23:24:21.083Z,18.60
2022-09-06T23:26:52.099Z,18.60
2022-09-06T23:29:23.068Z,18.60
2022-09-06T23:31:53.890Z,18.50
2022-09-06T23:34:24.659Z,18.50
2022-09-06T23:36:56.847Z,18.50
2022-09-06T23:39:28.549Z,18.50
2022-09-06T23:42:01.479Z,18.30
2022-09-06T23:44:32.175Z,18.20
2022-09-06T23:47:02.808Z,18.10
2022-09-06T23:49:33.561Z,18.00
2022-09-06T23:52:04.719Z,18.00
2022-09-06T23:54:36.500Z,18.20
2022-09-06T23:57:07.769Z,18.20
2022-09-06T23:59:38.397Z,18.20
